createdAt,value
2018-12-31T00:00:32.107Z,14.40
2018-12-31T00:03:01.729Z,14.40
2018-12-31T00:05:31.204Z,13.80
2018-12-31T00:08:00.808Z,15.03
2018-12-31T00:10:30.334Z,14.75
2018-12-31T00:12:59.814Z,14.55
2018-12-31T00:15:29.288Z,15.98
2018-12-31T00:17:58.665Z,15.25
2018-12-31T00:20:28.248Z,14.87
2018-12-31T00:22:58.063Z,15.38
2018-12-31T00:25:27.466Z,14.47
2018-12-31T00:27:57.230Z,15.32
2018-12-31T00:30:26.598Z,15.80
2018-12-31T00:32:56.130Z,15.88
2018-12-31T00:35:25.897Z,17.42
2018-12-31T00:37:55.448Z,16.57
2018-12-31T00:40:24.950Z,16.45
2018-12-31T00:42:58.961Z,16.35
2018-12-31T00:45:25.883Z,18.00
2018-12-31T00:47:55.471Z,17.85
2018-12-31T00:50:24.940Z,17.73
2018-12-31T00:52:54.313Z,16.87
2018-12-31T00:55:23.828Z,16.65
2018-12-31T00:57:53.383Z,16.20
2018-12-31T01:00:23.065Z,17.32
2018-12-31T01:02:52.808Z,16.40
2018-12-31T01:05:22.388Z,15.72
2018-12-31T01:07:51.801Z,16.57
2018-12-31T01:10:21.525Z,15.72
2018-12-31T01:12:51.239Z,16.45
2018-12-31T01:15:20.973Z,16.45
2018-12-31T01:17:50.484Z,16.60
2018-12-31T01:20:20.336Z,16.20
2018-12-31T01:22:49.844Z,17.07
2018-12-31T01:25:19.381Z,16.40
2018-12-31T01:27:49.201Z,16.27
2018-12-31T01:30:18.808Z,16.17
2018-12-31T01:32:48.194Z,15.58
2018-12-31T01:35:17.694Z,16.32
2018-12-31T01:37:47.929Z,17.65
2018-12-31T01:40:17.674Z,17.05
2018-12-31T01:42:47.058Z,16.57
2018-12-31T01:45:16.759Z,15.72
2018-12-31T01:47:46.173Z,16.05
2018-12-31T01:50:15.613Z,16.55
2018-12-31T01:52:44.950Z,16.57
2018-12-31T01:55:14.673Z,16.55
2018-12-31T01:57:44.039Z,16.37
2018-12-31T02:00:13.832Z,17.50
2018-12-31T02:02:43.166Z,16.27
2018-12-31T02:05:12.991Z,15.38
2018-12-31T02:07:42.361Z,15.88
2018-12-31T02:10:12.104Z,16.40
2018-12-31T02:12:41.827Z,16.80
2018-12-31T02:15:11.228Z,16.50
2018-12-31T02:17:40.627Z,15.48
2018-12-31T02:20:10.205Z,15.00
2018-12-31T02:22:39.914Z,15.38
2018-12-31T02:25:09.417Z,15.60
2018-12-31T02:27:38.895Z,16.50
2018-12-31T02:30:08.557Z,15.95
2018-12-31T02:32:38.277Z,16.23
2018-12-31T02:35:08.101Z,15.70
2018-12-31T02:37:37.527Z,14.78
2018-12-31T02:40:07.457Z,16.73
2018-12-31T02:42:37.552Z,15.88
2018-12-31T02:45:07.134Z,16.40
2018-12-31T02:47:36.631Z,16.37
2018-12-31T02:50:07.088Z,15.70
2018-12-31T02:52:36.610Z,17.50
2018-12-31T02:55:06.222Z,15.72
2018-12-31T02:57:35.843Z,15.53
2018-12-31T03:00:05.944Z,15.48
2018-12-31T03:02:35.517Z,16.02
2018-12-31T03:05:05.250Z,15.58
2018-12-31T03:07:34.817Z,17.30
2018-12-31T03:10:04.498Z,16.07
2018-12-31T03:12:33.898Z,15.85
2018-12-31T03:15:03.579Z,15.70
2018-12-31T03:17:34.303Z,14.85
2018-12-31T03:20:04.173Z,15.72
2018-12-31T03:22:33.619Z,15.45
2018-12-31T03:25:03.174Z,15.23
2018-12-31T03:27:32.776Z,15.28
2018-12-31T03:30:02.276Z,15.05
2018-12-31T03:32:31.813Z,14.75
2018-12-31T03:35:01.272Z,14.98
2018-12-31T03:37:30.975Z,14.90
2018-12-31T03:40:00.321Z,14.43
2018-12-31T03:42:29.961Z,14.20
2018-12-31T03:44:59.600Z,13.22
2018-12-31T03:47:29.037Z,13.10
2018-12-31T03:49:58.570Z,13.18
2018-12-31T03:52:28.232Z,12.82
2018-12-31T03:54:57.661Z,13.55
2018-12-31T03:57:27.258Z,12.93
2018-12-31T03:59:56.868Z,13.45
2018-12-31T04:02:26.279Z,13.30
2018-12-31T04:04:55.980Z,12.55
2018-12-31T04:07:25.412Z,13.08
2018-12-31T04:09:54.989Z,12.82
2018-12-31T04:12:24.640Z,13.53
2018-12-31T04:14:54.070Z,13.80
2018-12-31T04:17:23.745Z,12.95
2018-12-31T04:19:53.116Z,13.95
2018-12-31T04:22:22.850Z,13.20
2018-12-31T04:24:52.239Z,14.07
2018-12-31T04:27:21.628Z,12.93
2018-12-31T04:29:51.219Z,13.60
2018-12-31T04:32:20.708Z,13.58
2018-12-31T04:34:50.320Z,13.53
2018-12-31T04:37:19.766Z,12.80
2018-12-31T04:39:49.434Z,13.25
2018-12-31T04:42:18.812Z,13.20
2018-12-31T04:44:48.381Z,12.70
2018-12-31T04:47:17.857Z,12.85
2018-12-31T04:49:47.518Z,12.75
2018-12-31T04:52:17.080Z,11.93
2018-12-31T04:54:46.545Z,11.60
2018-12-31T04:57:15.917Z,12.53
2018-12-31T04:59:45.302Z,12.28
2018-12-31T05:02:15.053Z,12.43
2018-12-31T05:04:45.939Z,13.15
2018-12-31T05:07:15.646Z,12.30
2018-12-31T05:09:45.272Z,13.90
2018-12-31T05:12:14.856Z,14.30
2018-12-31T05:14:44.392Z,14.07
2018-12-31T05:17:14.078Z,13.65
2018-12-31T05:19:43.711Z,13.60
2018-12-31T05:22:13.296Z,14.95
2018-12-31T05:24:42.674Z,13.30
2018-12-31T05:27:12.168Z,14.60
2018-12-31T05:29:41.677Z,13.30
2018-12-31T05:32:11.195Z,13.45
2018-12-31T05:34:41.194Z,15.55
2018-12-31T05:37:10.879Z,13.50
2018-12-31T05:39:40.628Z,13.00
2018-12-31T05:42:10.057Z,12.75
2018-12-31T05:44:39.719Z,13.93
2018-12-31T05:47:09.343Z,13.72
2018-12-31T05:49:38.775Z,13.98
2018-12-31T05:52:08.485Z,14.03
2018-12-31T05:54:37.965Z,13.25
2018-12-31T05:57:07.337Z,14.58
2018-12-31T05:59:36.749Z,14.55
2018-12-31T06:02:06.132Z,13.75
2018-12-31T06:04:35.541Z,12.90
2018-12-31T06:07:04.968Z,14.25
2018-12-31T06:09:34.491Z,17.02
2018-12-31T06:12:03.829Z,14.60
2018-12-31T06:14:33.355Z,14.63
2018-12-31T06:17:05.111Z,14.45
2018-12-31T06:19:34.678Z,15.43
2018-12-31T06:22:04.474Z,16.20
2018-12-31T06:24:34.100Z,14.30
2018-12-31T06:27:03.441Z,14.65
2018-12-31T06:29:32.989Z,13.08
2018-12-31T06:32:02.431Z,14.75
2018-12-31T06:34:32.309Z,14.58
2018-12-31T06:37:01.812Z,15.00
2018-12-31T06:39:31.437Z,14.68
2018-12-31T06:42:00.959Z,13.80
2018-12-31T06:44:30.342Z,14.00
2018-12-31T06:46:59.744Z,12.73
2018-12-31T06:49:29.128Z,14.93
2018-12-31T06:51:58.527Z,13.70
2018-12-31T06:54:27.958Z,14.33
2018-12-31T06:56:57.564Z,14.73
2018-12-31T06:59:27.324Z,14.38
2018-12-31T07:01:56.765Z,14.13
2018-12-31T07:04:27.906Z,14.40
2018-12-31T07:06:57.425Z,15.90
2018-12-31T07:09:26.807Z,15.65
2018-12-31T07:11:56.309Z,13.20
2018-12-31T07:14:25.817Z,13.62
2018-12-31T07:16:55.578Z,13.48
2018-12-31T07:19:24.949Z,13.03
2018-12-31T07:21:54.480Z,13.35
2018-12-31T07:24:24.190Z,13.03
2018-12-31T07:26:53.526Z,12.55
2018-12-31T07:29:25.276Z,13.80
2018-12-31T07:31:54.767Z,14.43
2018-12-31T07:34:25.877Z,13.55
2018-12-31T07:36:55.381Z,13.43
2018-12-31T07:39:25.078Z,12.63
2018-12-31T07:41:54.440Z,12.35
2018-12-31T07:44:23.817Z,14.55
2018-12-31T07:46:53.380Z,13.35
2018-12-31T07:49:22.770Z,13.58
2018-12-31T07:51:52.137Z,14.00
2018-12-31T07:54:21.893Z,14.55
2018-12-31T07:56:51.541Z,13.40
2018-12-31T07:59:20.986Z,14.13
2018-12-31T08:01:50.641Z,14.13
2018-12-31T08:04:20.256Z,13.80
2018-12-31T08:06:49.661Z,13.10
2018-12-31T08:09:19.167Z,12.43
2018-12-31T08:11:48.629Z,12.10
2018-12-31T08:14:18.139Z,11.73
2018-12-31T08:16:47.859Z,12.55
2018-12-31T08:19:17.333Z,14.65
2018-12-31T08:21:46.829Z,15.03
2018-12-31T08:24:16.450Z,14.73
2018-12-31T08:26:45.965Z,14.55
2018-12-31T08:29:15.338Z,14.05
2018-12-31T08:31:44.710Z,15.10
2018-12-31T08:34:14.438Z,14.47
2018-12-31T08:36:43.912Z,13.70
2018-12-31T08:39:13.783Z,14.35
2018-12-31T08:41:43.887Z,13.18
2018-12-31T08:44:13.844Z,11.95
2018-12-31T08:46:43.441Z,12.18
2018-12-31T08:49:12.820Z,12.50
2018-12-31T08:51:43.205Z,12.25
2018-12-31T08:54:12.750Z,11.35
2018-12-31T08:56:42.264Z,11.88
2018-12-31T08:59:11.655Z,12.93
2018-12-31T09:01:41.259Z,11.40
2018-12-31T09:04:10.891Z,12.18
2018-12-31T09:06:40.335Z,12.58
2018-12-31T09:09:09.772Z,11.63
2018-12-31T09:11:39.494Z,12.53
2018-12-31T09:14:09.110Z,11.05
2018-12-31T09:16:38.497Z,11.83
2018-12-31T09:19:07.997Z,11.78
2018-12-31T09:21:37.509Z,13.08
2018-12-31T09:24:07.020Z,12.73
2018-12-31T09:26:36.621Z,13.60
2018-12-31T09:29:06.175Z,12.88
2018-12-31T09:31:35.646Z,12.25
2018-12-31T09:34:05.234Z,11.45
2018-12-31T09:36:36.564Z,13.15
2018-12-31T09:39:08.060Z,13.05
2018-12-31T09:41:37.808Z,13.20
2018-12-31T09:44:07.304Z,12.88
2018-12-31T09:46:36.950Z,12.25
2018-12-31T09:49:06.466Z,12.33
2018-12-31T09:51:35.889Z,12.68
2018-12-31T09:54:05.607Z,12.53
2018-12-31T09:56:34.959Z,11.95
2018-12-31T09:59:04.604Z,12.15
2018-12-31T10:01:34.267Z,12.73
2018-12-31T10:04:03.890Z,12.35
2018-12-31T10:06:33.313Z,11.78
2018-12-31T10:09:03.038Z,11.95
2018-12-31T10:11:32.470Z,11.83
2018-12-31T10:14:02.145Z,12.90
2018-12-31T10:16:31.490Z,13.38
2018-12-31T10:19:01.112Z,13.13
2018-12-31T10:21:30.447Z,12.43
2018-12-31T10:24:00.134Z,12.50
2018-12-31T10:26:29.613Z,12.95
2018-12-31T10:28:59.146Z,12.93
2018-12-31T10:31:28.637Z,12.63
2018-12-31T10:33:58.413Z,12.05
2018-12-31T10:36:27.912Z,13.83
2018-12-31T10:38:57.278Z,12.78
2018-12-31T10:41:26.810Z,14.23
2018-12-31T10:43:56.184Z,12.85
2018-12-31T10:46:25.825Z,12.70
2018-12-31T10:48:55.254Z,12.45
2018-12-31T10:51:25.373Z,13.88
2018-12-31T10:53:55.046Z,12.28
2018-12-31T10:56:24.614Z,12.35
2018-12-31T10:58:54.528Z,11.85
2018-12-31T11:01:24.072Z,12.25
2018-12-31T11:03:53.461Z,10.58
2018-12-31T11:06:23.072Z,10.38
2018-12-31T11:08:52.610Z,11.12
2018-12-31T11:11:22.038Z,10.88
2018-12-31T11:13:51.386Z,11.75
2018-12-31T11:16:20.826Z,11.15
2018-12-31T11:18:50.856Z,11.57
2018-12-31T11:21:20.229Z,11.53
2018-12-31T11:23:49.710Z,10.55
2018-12-31T11:26:19.094Z,9.65
2018-12-31T11:28:48.704Z,11.63
2018-12-31T11:31:18.275Z,10.48
2018-12-31T11:33:48.524Z,10.43
2018-12-31T11:36:18.059Z,10.55
2018-12-31T11:38:47.758Z,10.43
2018-12-31T11:41:17.336Z,11.05
2018-12-31T11:43:47.204Z,10.95
2018-12-31T11:46:16.638Z,10.35
2018-12-31T11:48:46.636Z,8.33
2018-12-31T11:51:16.281Z,8.45
2018-12-31T11:53:46.098Z,6.85
2018-12-31T11:56:15.643Z,8.48
2018-12-31T11:58:45.093Z,5.47
2018-12-31T12:01:14.677Z,5.70
2018-12-31T12:03:44.292Z,8.20
2018-12-31T12:06:13.851Z,7.70
2018-12-31T12:08:43.279Z,7.25
2018-12-31T12:11:13.713Z,5.50
2018-12-31T12:13:43.264Z,7.85
2018-12-31T12:16:12.817Z,4.90
2018-12-31T12:18:44.342Z,6.47
2018-12-31T12:21:13.984Z,5.78
2018-12-31T12:23:43.499Z,6.45
2018-12-31T12:26:12.990Z,8.30
2018-12-31T12:28:42.639Z,7.30
2018-12-31T12:31:12.440Z,7.75
2018-12-31T12:33:42.747Z,6.90
2018-12-31T12:36:12.153Z,6.97
2018-12-31T12:38:41.698Z,5.00
2018-12-31T12:41:11.677Z,7.37
2018-12-31T12:43:41.548Z,6.58
2018-12-31T12:46:11.820Z,5.72
2018-12-31T12:48:41.335Z,6.62
2018-12-31T12:51:10.986Z,5.92
2018-12-31T12:53:40.623Z,5.85
2018-12-31T12:56:10.221Z,4.95
2018-12-31T12:58:39.925Z,4.85
2018-12-31T13:01:09.740Z,4.83
2018-12-31T13:03:39.263Z,3.60
2018-12-31T13:06:08.790Z,4.85
2018-12-31T13:08:38.431Z,4.50
2018-12-31T13:11:08.421Z,5.90
2018-12-31T13:13:38.112Z,4.67
2018-12-31T13:16:07.591Z,4.25
2018-12-31T13:18:37.185Z,3.98
2018-12-31T13:21:06.661Z,5.72
2018-12-31T13:23:36.287Z,6.42
2018-12-31T13:26:05.993Z,4.85
2018-12-31T13:28:35.791Z,8.15
2018-12-31T13:31:05.759Z,4.28
2018-12-31T13:33:35.512Z,5.90
2018-12-31T13:36:05.258Z,4.05
2018-12-31T13:38:34.978Z,4.37
2018-12-31T13:41:04.438Z,5.67
2018-12-31T13:43:34.038Z,6.22
2018-12-31T13:46:04.456Z,4.65
2018-12-31T13:48:34.022Z,4.50
2018-12-31T13:51:03.766Z,6.40
2018-12-31T13:53:33.470Z,6.00
2018-12-31T13:56:02.972Z,5.75
2018-12-31T13:58:33.076Z,4.53
2018-12-31T14:01:02.974Z,5.55
2018-12-31T14:03:32.575Z,9.63
2018-12-31T14:06:02.061Z,9.35
2018-12-31T14:08:31.869Z,10.82
2018-12-31T14:11:01.348Z,9.85
2018-12-31T14:13:30.806Z,10.10
2018-12-31T14:16:00.216Z,10.50
2018-12-31T14:18:29.761Z,10.90
2018-12-31T14:20:59.522Z,9.90
2018-12-31T14:23:28.997Z,9.93
2018-12-31T14:25:58.548Z,9.48
2018-12-31T14:28:28.035Z,9.65
2018-12-31T14:30:57.589Z,9.40
2018-12-31T14:33:27.128Z,9.53
2018-12-31T14:35:56.639Z,9.75
2018-12-31T14:38:26.079Z,9.10
2018-12-31T14:40:55.622Z,9.75
2018-12-31T14:43:25.289Z,10.08
2018-12-31T14:45:54.763Z,8.93
2018-12-31T14:48:24.519Z,9.48
2018-12-31T14:50:54.052Z,8.95
2018-12-31T14:53:23.659Z,9.65
2018-12-31T14:55:53.131Z,9.70
2018-12-31T14:58:22.728Z,10.15
2018-12-31T15:00:52.184Z,9.00
2018-12-31T15:03:21.688Z,8.65
2018-12-31T15:05:51.183Z,9.10
2018-12-31T15:08:21.395Z,9.48
2018-12-31T15:10:50.878Z,9.48
2018-12-31T15:13:20.475Z,9.45
2018-12-31T15:15:49.884Z,9.08
2018-12-31T15:18:19.422Z,8.55
2018-12-31T15:20:48.886Z,8.70
2018-12-31T15:23:18.338Z,8.35
2018-12-31T15:25:47.885Z,8.98
2018-12-31T15:28:17.452Z,8.55
2018-12-31T15:30:47.203Z,7.50
2018-12-31T15:33:16.579Z,6.95
2018-12-31T15:35:45.941Z,8.00
2018-12-31T15:38:15.533Z,7.67
2018-12-31T15:40:45.372Z,7.60
2018-12-31T15:43:15.006Z,7.53
2018-12-31T15:45:44.562Z,8.10
2018-12-31T15:48:13.946Z,8.40
2018-12-31T15:50:43.464Z,8.55
2018-12-31T15:53:13.669Z,8.50
2018-12-31T15:55:43.359Z,8.75
2018-12-31T15:58:12.894Z,8.88
2018-12-31T16:00:42.412Z,8.65
2018-12-31T16:03:12.270Z,8.68
2018-12-31T16:05:41.601Z,8.25
2018-12-31T16:08:11.842Z,8.30
2018-12-31T16:10:41.382Z,8.63
2018-12-31T16:13:10.828Z,9.05
2018-12-31T16:15:40.308Z,8.70
2018-12-31T16:18:09.712Z,7.87
2018-12-31T16:20:39.963Z,7.90
2018-12-31T16:23:09.753Z,8.30
2018-12-31T16:25:39.350Z,8.40
2018-12-31T16:28:08.830Z,8.53
2018-12-31T16:30:38.458Z,8.33
2018-12-31T16:33:08.353Z,9.68
2018-12-31T16:35:38.328Z,9.85
2018-12-31T16:38:07.692Z,9.28
2018-12-31T16:40:37.091Z,10.38
2018-12-31T16:43:06.529Z,9.78
2018-12-31T16:45:36.053Z,9.58
2018-12-31T16:48:05.968Z,10.28
2018-12-31T16:50:35.696Z,9.65
2018-12-31T16:53:05.070Z,8.95
2018-12-31T16:55:34.776Z,9.18
2018-12-31T16:58:04.554Z,8.68
2018-12-31T17:00:33.935Z,8.23
2018-12-31T17:03:03.367Z,9.55
2018-12-31T17:05:32.946Z,9.25
2018-12-31T17:08:02.492Z,9.23
2018-12-31T17:10:32.005Z,9.45
2018-12-31T17:13:01.583Z,9.48
2018-12-31T17:15:31.205Z,8.78
2018-12-31T17:18:00.636Z,9.43
2018-12-31T17:20:30.316Z,10.10
2018-12-31T17:22:59.772Z,9.68
2018-12-31T17:25:29.291Z,9.83
2018-12-31T17:27:58.812Z,10.35
2018-12-31T17:30:28.431Z,10.18
2018-12-31T17:32:58.061Z,10.30
2018-12-31T17:35:27.602Z,11.50
2018-12-31T17:37:57.386Z,10.70
2018-12-31T17:40:26.968Z,10.32
2018-12-31T17:42:56.442Z,12.03
2018-12-31T17:45:26.546Z,12.85
2018-12-31T17:47:56.194Z,11.97
2018-12-31T17:50:25.985Z,12.40
2018-12-31T17:52:55.693Z,11.20
2018-12-31T17:55:26.565Z,11.65
2018-12-31T17:57:56.356Z,11.30
2018-12-31T18:00:25.879Z,11.18
2018-12-31T18:02:55.354Z,11.28
2018-12-31T18:05:24.944Z,10.90
2018-12-31T18:07:54.543Z,10.90
2018-12-31T18:10:24.263Z,10.85
2018-12-31T18:12:53.835Z,11.10
2018-12-31T18:15:23.455Z,10.63
2018-12-31T18:17:53.003Z,10.75
2018-12-31T18:20:22.540Z,11.10
2018-12-31T18:22:52.051Z,11.60
2018-12-31T18:25:21.565Z,13.65
2018-12-31T18:27:50.961Z,12.00
2018-12-31T18:30:20.560Z,14.43
2018-12-31T18:32:50.204Z,12.10
2018-12-31T18:35:19.736Z,14.18
2018-12-31T18:37:49.334Z,15.05
2018-12-31T18:40:18.937Z,13.85
2018-12-31T18:42:48.474Z,15.10
2018-12-31T18:45:18.018Z,16.48
2018-12-31T18:47:47.993Z,16.65
2018-12-31T18:50:17.743Z,16.12
2018-12-31T18:52:47.195Z,16.65
2018-12-31T18:55:16.883Z,18.00
2018-12-31T18:57:46.390Z,17.57
2018-12-31T19:00:16.070Z,17.42
2018-12-31T19:02:45.558Z,16.95
2018-12-31T19:05:15.334Z,17.87
2018-12-31T19:07:44.799Z,17.23
2018-12-31T19:10:15.822Z,15.80
2018-12-31T19:12:45.473Z,17.05
2018-12-31T19:15:14.925Z,16.75
2018-12-31T19:17:44.532Z,16.97
2018-12-31T19:20:14.086Z,17.62
2018-12-31T19:22:44.159Z,16.82
2018-12-31T19:25:13.569Z,17.15
2018-12-31T19:27:43.651Z,17.00
2018-12-31T19:30:13.458Z,16.17
2018-12-31T19:32:42.998Z,14.65
2018-12-31T19:35:13.183Z,16.00
2018-12-31T19:37:42.755Z,13.60
2018-12-31T19:40:12.396Z,15.10
2018-12-31T19:42:41.996Z,14.83
2018-12-31T19:45:11.498Z,15.32
2018-12-31T19:47:41.916Z,16.87
2018-12-31T19:50:11.442Z,15.83
2018-12-31T19:52:41.175Z,15.38
2018-12-31T19:55:11.069Z,17.20
2018-12-31T19:57:40.825Z,15.80
2018-12-31T20:00:10.375Z,16.62
2018-12-31T20:02:39.932Z,13.65
2018-12-31T20:05:09.609Z,14.98
2018-12-31T20:07:39.069Z,14.45
2018-12-31T20:10:08.617Z,14.78
2018-12-31T20:12:38.059Z,14.98
2018-12-31T20:15:07.862Z,15.03
2018-12-31T20:17:37.263Z,15.88
2018-12-31T20:20:06.979Z,16.00
2018-12-31T20:22:36.447Z,16.97
2018-12-31T20:25:06.576Z,19.23
2018-12-31T20:27:36.175Z,19.37
2018-12-31T20:30:06.175Z,17.77
2018-12-31T20:32:35.853Z,18.82
2018-12-31T20:35:05.774Z,19.55
2018-12-31T20:37:35.716Z,19.30
2018-12-31T20:40:05.779Z,21.25
2018-12-31T20:42:35.347Z,20.27
2018-12-31T20:45:05.402Z,21.00
2018-12-31T20:47:34.964Z,19.50
2018-12-31T20:50:05.524Z,20.55
2018-12-31T20:52:35.038Z,19.90
2018-12-31T20:55:04.662Z,21.27
2018-12-31T20:57:34.172Z,18.35
2018-12-31T21:00:03.598Z,16.25
2018-12-31T21:02:33.987Z,15.10
2018-12-31T21:05:07.076Z,18.27
2018-12-31T21:07:36.885Z,18.48
2018-12-31T21:10:09.108Z,22.30
2018-12-31T21:12:40.265Z,24.25
2018-12-31T21:15:10.283Z,26.07
2018-12-31T21:17:39.984Z,19.15
2018-12-31T21:20:09.878Z,14.47
2018-12-31T21:22:39.390Z,14.90
2018-12-31T21:25:08.784Z,13.53
2018-12-31T21:27:38.860Z,15.60
2018-12-31T21:30:10.416Z,16.80
2018-12-31T21:32:40.255Z,16.50
2018-12-31T21:35:09.922Z,14.43
2018-12-31T21:37:39.572Z,13.43
2018-12-31T21:40:10.589Z,13.60
2018-12-31T21:42:41.037Z,14.28
2018-12-31T21:45:10.708Z,13.55
2018-12-31T21:47:40.387Z,13.78
2018-12-31T21:50:10.181Z,14.45
2018-12-31T21:52:39.795Z,13.53
2018-12-31T21:55:09.347Z,14.05
2018-12-31T21:57:38.822Z,14.25
2018-12-31T22:00:09.520Z,13.78
2018-12-31T22:02:39.512Z,21.55
2018-12-31T22:05:09.005Z,32.00
2018-12-31T22:07:38.443Z,17.40
2018-12-31T22:10:08.234Z,14.80
2018-12-31T22:12:37.930Z,15.43
2018-12-31T22:15:09.457Z,14.93
2018-12-31T22:17:39.189Z,15.83
2018-12-31T22:20:10.613Z,12.47
2018-12-31T22:22:40.111Z,12.73
2018-12-31T22:25:09.591Z,12.43
2018-12-31T22:27:39.258Z,11.63
2018-12-31T22:30:09.913Z,10.23
2018-12-31T22:32:39.967Z,10.63
2018-12-31T22:35:09.380Z,10.85
2018-12-31T22:37:38.898Z,10.80
2018-12-31T22:40:08.714Z,16.50
2018-12-31T22:42:38.256Z,10.53
2018-12-31T22:45:07.997Z,10.32
2018-12-31T22:47:37.477Z,14.83
2018-12-31T22:50:09.430Z,10.78
2018-12-31T22:52:38.937Z,30.50
2018-12-31T22:55:08.696Z,17.57
2018-12-31T22:57:38.925Z,11.15
2018-12-31T23:00:10.509Z,11.93
2018-12-31T23:02:40.291Z,25.65
2018-12-31T23:05:11.768Z,78.17
2018-12-31T23:07:41.289Z,177.25
2018-12-31T23:10:11.041Z,98.20
2018-12-31T23:12:40.409Z,203.73
2018-12-31T23:15:16.997Z,110.05
2018-12-31T23:17:47.173Z,131.07
2018-12-31T23:20:17.339Z,133.37
2018-12-31T23:22:46.961Z,130.90
2018-12-31T23:25:16.858Z,114.85
2018-12-31T23:27:46.433Z,112.83
2018-12-31T23:30:16.133Z,108.03
2018-12-31T23:32:45.758Z,67.92
2018-12-31T23:35:16.951Z,67.75
2018-12-31T23:37:47.324Z,36.75
2018-12-31T23:40:17.121Z,49.25
2018-12-31T23:42:46.699Z,33.28
2018-12-31T23:45:16.244Z,33.08
2018-12-31T23:47:45.783Z,32.10
2018-12-31T23:50:15.236Z,40.05
2018-12-31T23:52:44.724Z,38.90
2018-12-31T23:55:14.332Z,37.20
2018-12-31T23:57:43.934Z,31.42
